createdAt,value
2018-08-09T00:00:50.918Z,7.8
2018-08-09T00:01:52.206Z,7.8
2018-08-09T00:02:53.811Z,7.8
2018-08-09T00:03:55.424Z,7.8
2018-08-09T00:04:57.033Z,7.8
2018-08-09T00:05:58.657Z,7.8
2018-08-09T00:07:00.259Z,7.9
2018-08-09T00:08:01.917Z,7.8
2018-08-09T00:09:03.524Z,7.9
2018-08-09T00:10:05.142Z,7.8
2018-08-09T00:11:06.591Z,7.8
2018-08-09T00:12:08.202Z,7.8
2018-08-09T00:13:09.825Z,7.8
2018-08-09T00:14:11.413Z,7.8
2018-08-09T00:15:12.849Z,7.8
2018-08-09T00:16:14.465Z,7.8
2018-08-09T00:17:16.065Z,7.8
2018-08-09T00:18:17.336Z,7.8
2018-08-09T00:19:18.766Z,7.8
2018-08-09T00:20:20.217Z,7.8
2018-08-09T00:21:21.821Z,7.9
2018-08-09T00:22:23.437Z,7.8
2018-08-09T00:23:25.050Z,7.8
2018-08-09T00:24:26.682Z,7.8
2018-08-09T00:25:28.104Z,7.8
2018-08-09T00:26:29.706Z,7.8
2018-08-09T00:27:31.315Z,7.8
2018-08-09T00:28:32.765Z,7.8
2018-08-09T00:29:34.364Z,7.8
2018-08-09T00:30:35.976Z,7.8
2018-08-09T00:31:37.256Z,7.9
2018-08-09T00:32:38.689Z,7.9
2018-08-09T00:33:40.129Z,7.9
2018-08-09T00:34:41.558Z,7.9
2018-08-09T00:35:42.990Z,7.9
2018-08-09T00:36:44.608Z,7.9
2018-08-09T00:37:46.214Z,7.9
2018-08-09T00:38:47.645Z,7.9
2018-08-09T00:39:49.254Z,7.8
2018-08-09T00:40:50.703Z,7.8
2018-08-09T00:41:52.155Z,7.8
2018-08-09T00:42:53.777Z,7.8
2018-08-09T00:43:55.057Z,7.8
2018-08-09T00:44:56.647Z,7.8
2018-08-09T00:45:58.242Z,7.8
2018-08-09T00:46:59.692Z,7.8
2018-08-09T00:48:01.346Z,7.8
2018-08-09T00:49:02.962Z,7.8
2018-08-09T00:50:04.424Z,7.8
2018-08-09T00:51:06.014Z,7.8
2018-08-09T00:52:07.611Z,7.8
2018-08-09T00:53:09.078Z,7.8
2018-08-09T00:54:10.667Z,7.8
2018-08-09T00:55:12.261Z,7.8
2018-08-09T00:56:13.704Z,7.8
2018-08-09T00:57:15.293Z,7.8
2018-08-09T00:58:16.734Z,7.8
2018-08-09T00:59:18.365Z,7.8
2018-08-09T01:00:19.957Z,7.8
2018-08-09T01:01:21.555Z,7.8
2018-08-09T01:02:23.146Z,7.8
2018-08-09T01:03:24.806Z,7.8
2018-08-09T01:04:26.102Z,7.8
2018-08-09T01:05:27.699Z,7.8
2018-08-09T01:06:29.295Z,7.8
2018-08-09T01:07:30.777Z,7.8
2018-08-09T01:08:32.208Z,7.8
2018-08-09T01:09:33.473Z,7.8
2018-08-09T01:10:35.096Z,7.8
2018-08-09T01:11:36.361Z,7.8
2018-08-09T01:12:37.945Z,7.8
2018-08-09T01:13:39.394Z,7.8
2018-08-09T01:14:40.997Z,7.8
2018-08-09T01:15:42.605Z,7.8
2018-08-09T01:16:44.084Z,7.8
2018-08-09T01:17:45.706Z,7.8
2018-08-09T01:18:47.310Z,7.8
2018-08-09T01:19:48.749Z,7.7
2018-08-09T01:20:50.017Z,7.7
2018-08-09T01:21:51.605Z,7.7
2018-08-09T01:22:53.214Z,7.6
2018-08-09T01:23:54.505Z,7.5
2018-08-09T01:24:55.786Z,7.5
2018-08-09T01:25:57.062Z,7.4
2018-08-09T01:26:58.674Z,7.3
2018-08-09T01:28:00.270Z,7.2
2018-08-09T01:29:01.948Z,7.2
2018-08-09T01:30:03.401Z,7.2
2018-08-09T01:31:04.833Z,7.2
2018-08-09T01:32:06.440Z,7.2
2018-08-09T01:33:07.891Z,7.2
2018-08-09T01:34:09.502Z,7.2
2018-08-09T01:35:10.783Z,7.2
2018-08-09T01:36:12.405Z,7.2
2018-08-09T01:37:28.534Z,7.2
2018-08-09T01:38:30.135Z,7.2
2018-08-09T01:39:31.600Z,7.2
2018-08-09T01:40:33.046Z,7.2
2018-08-09T01:41:34.661Z,7.2
2018-08-09T01:42:36.250Z,7.2
2018-08-09T01:43:37.674Z,7.2
2018-08-09T01:44:39.267Z,7.2
2018-08-09T01:45:40.716Z,7.2
2018-08-09T01:46:42.305Z,7.2
2018-08-09T01:47:43.900Z,7.2
2018-08-09T01:48:45.492Z,7.2
2018-08-09T01:49:47.108Z,7.2
2018-08-09T01:50:48.701Z,7.2
2018-08-09T01:51:50.152Z,7.2
2018-08-09T01:52:51.741Z,7.2
2018-08-09T01:53:53.157Z,7.2
2018-08-09T01:54:54.728Z,7.2
2018-08-09T01:55:56.334Z,7.2
2018-08-09T01:56:57.935Z,7.2
2018-08-09T01:57:59.544Z,7.2
2018-08-09T01:59:01.171Z,7.2
2018-08-09T02:00:02.816Z,7.2
2018-08-09T02:01:04.414Z,7.2
2018-08-09T02:02:05.854Z,7.2
2018-08-09T02:03:07.445Z,7.2
2018-08-09T02:04:09.043Z,7.2
2018-08-09T02:05:10.947Z,7.2
2018-08-09T02:06:12.666Z,7.2
2018-08-09T02:07:14.322Z,7.2
2018-08-09T02:08:15.932Z,7.2
2018-08-09T02:09:17.523Z,7.2
2018-08-09T02:10:18.951Z,7.2
2018-08-09T02:11:20.218Z,7.3
2018-08-09T02:12:21.822Z,7.3
2018-08-09T02:13:23.265Z,7.3
2018-08-09T02:14:24.685Z,7.3
2018-08-09T02:15:26.288Z,7.3
2018-08-09T02:16:27.721Z,7.3
2018-08-09T02:17:29.161Z,7.4
2018-08-09T02:18:30.749Z,7.4
2018-08-09T02:19:32.206Z,7.4
2018-08-09T02:20:33.804Z,7.4
2018-08-09T02:21:35.451Z,7.4
2018-08-09T02:22:36.884Z,7.4
2018-08-09T02:23:38.462Z,7.5
2018-08-09T02:24:39.907Z,7.5
2018-08-09T02:25:41.516Z,7.5
2018-08-09T02:26:42.968Z,7.5
2018-08-09T02:27:44.587Z,7.6
2018-08-09T02:28:45.861Z,7.6
2018-08-09T02:29:47.463Z,7.7
2018-08-09T02:30:48.907Z,7.7
2018-08-09T02:31:50.513Z,7.8
2018-08-09T02:32:51.772Z,7.8
2018-08-09T02:33:53.411Z,7.8
2018-08-09T02:34:54.866Z,7.8
2018-08-09T02:35:56.322Z,7.8
2018-08-09T02:36:57.933Z,7.8
2018-08-09T02:37:59.196Z,7.8
2018-08-09T02:39:00.486Z,7.8
2018-08-09T02:40:02.124Z,7.8
2018-08-09T02:41:03.716Z,7.8
2018-08-09T02:42:05.149Z,7.8
2018-08-09T02:43:06.248Z,7.8
2018-08-09T02:44:07.854Z,7.8
2018-08-09T02:45:09.468Z,7.8
2018-08-09T02:46:11.096Z,7.8
2018-08-09T02:47:12.728Z,7.8
2018-08-09T02:48:14.346Z,7.8
2018-08-09T02:49:15.969Z,7.8
2018-08-09T02:50:17.404Z,7.8
2018-08-09T02:51:19.002Z,7.8
2018-08-09T02:52:20.456Z,7.8
2018-08-09T02:53:21.929Z,7.8
2018-08-09T02:54:23.372Z,7.9
2018-08-09T02:55:25.006Z,7.8
2018-08-09T02:56:26.447Z,7.8
2018-08-09T02:57:27.893Z,7.8
2018-08-09T02:58:29.322Z,7.8
2018-08-09T02:59:30.772Z,7.9
2018-08-09T03:00:32.051Z,7.8
2018-08-09T03:01:33.659Z,7.9
2018-08-09T03:02:35.104Z,7.9
2018-08-09T03:03:36.546Z,7.9
2018-08-09T03:04:37.660Z,7.9
2018-08-09T03:05:39.301Z,7.8
2018-08-09T03:06:40.916Z,7.8
2018-08-09T03:07:42.364Z,7.8
2018-08-09T03:08:43.493Z,7.8
2018-08-09T03:09:45.119Z,7.8
2018-08-09T03:10:46.716Z,7.8
2018-08-09T03:11:48.184Z,7.8
2018-08-09T03:12:49.784Z,7.8
2018-08-09T03:13:51.402Z,7.8
2018-08-09T03:14:52.838Z,7.8
2018-08-09T03:15:54.110Z,7.8
2018-08-09T03:16:55.543Z,7.8
2018-08-09T03:17:57.161Z,7.8
2018-08-09T03:18:58.776Z,7.8
2018-08-09T03:20:00.378Z,7.7
2018-08-09T03:21:01.814Z,7.7
2018-08-09T03:22:03.246Z,7.7
2018-08-09T03:23:04.874Z,7.6
2018-08-09T03:24:06.504Z,7.6
2018-08-09T03:25:07.761Z,7.5
2018-08-09T03:26:08.857Z,7.4
2018-08-09T03:27:10.470Z,7.3
2018-08-09T03:28:12.071Z,7.2
2018-08-09T03:29:13.669Z,7.2
2018-08-09T03:30:15.268Z,7.2
2018-08-09T03:31:16.712Z,7.2
2018-08-09T03:32:18.345Z,7.2
2018-08-09T03:33:19.936Z,7.2
2018-08-09T03:34:21.362Z,7.2
2018-08-09T03:35:22.821Z,7.2
2018-08-09T03:36:24.256Z,7.2
2018-08-09T03:37:25.871Z,7.2
2018-08-09T03:38:27.302Z,7.2
2018-08-09T03:39:28.735Z,7.2
2018-08-09T03:40:30.166Z,7.2
2018-08-09T03:41:31.599Z,7.2
2018-08-09T03:42:33.025Z,7.2
2018-08-09T03:43:34.639Z,7.2
2018-08-09T03:44:35.896Z,7.2
2018-08-09T03:45:37.508Z,7.2
2018-08-09T03:46:39.140Z,7.2
2018-08-09T03:47:40.732Z,7.2
2018-08-09T03:48:42.170Z,7.2
2018-08-09T03:49:43.777Z,7.2
2018-08-09T03:50:45.222Z,7.2
2018-08-09T03:51:46.679Z,7.2
2018-08-09T03:52:48.113Z,7.2
2018-08-09T03:53:49.707Z,7.2
2018-08-09T03:54:50.977Z,7.2
2018-08-09T03:55:52.590Z,7.2
2018-08-09T03:56:54.180Z,7.2
2018-08-09T03:57:55.633Z,7.2
2018-08-09T03:58:57.084Z,7.2
2018-08-09T03:59:58.517Z,7.2
2018-08-09T04:00:59.968Z,7.2
2018-08-09T04:02:01.572Z,7.3
2018-08-09T04:03:02.857Z,7.3
2018-08-09T04:04:04.308Z,7.3
2018-08-09T04:05:05.903Z,7.3
2018-08-09T04:06:07.517Z,7.3
2018-08-09T04:07:09.110Z,7.3
2018-08-09T04:08:10.542Z,7.3
2018-08-09T04:09:12.143Z,7.3
2018-08-09T04:10:13.758Z,7.3
2018-08-09T04:11:15.191Z,7.4
2018-08-09T04:12:16.630Z,7.4
2018-08-09T04:13:18.060Z,7.4
2018-08-09T04:14:19.674Z,7.5
2018-08-09T04:15:21.098Z,7.5
2018-08-09T04:16:22.363Z,7.5
2018-08-09T04:17:23.977Z,7.5
2018-08-09T04:18:25.428Z,7.6
2018-08-09T04:19:27.029Z,7.6
2018-08-09T04:20:28.624Z,7.6
2018-08-09T04:21:30.053Z,7.7
2018-08-09T04:22:31.499Z,7.7
2018-08-09T04:23:33.097Z,7.7
2018-08-09T04:24:34.706Z,7.8
2018-08-09T04:25:36.144Z,7.8
2018-08-09T04:26:38.380Z,7.8
2018-08-09T04:27:40.022Z,7.8
2018-08-09T04:28:41.617Z,7.8
2018-08-09T04:29:43.237Z,7.8
2018-08-09T04:30:44.853Z,7.8
2018-08-09T04:31:46.151Z,7.8
2018-08-09T04:32:47.623Z,7.8
2018-08-09T04:33:48.907Z,7.8
2018-08-09T04:34:50.488Z,7.8
2018-08-09T04:35:52.073Z,7.8
2018-08-09T04:36:53.704Z,7.8
2018-08-09T04:37:55.351Z,7.8
2018-08-09T04:38:56.962Z,7.8
2018-08-09T04:39:58.419Z,7.8
2018-08-09T04:41:00.028Z,7.8
2018-08-09T04:42:01.534Z,7.8
2018-08-09T04:43:02.986Z,7.8
2018-08-09T04:44:04.418Z,7.8
2018-08-09T04:45:06.026Z,7.8
2018-08-09T04:46:07.644Z,7.8
2018-08-09T04:47:08.739Z,7.8
2018-08-09T04:48:10.337Z,7.8
2018-08-09T04:49:12.053Z,7.8
2018-08-09T04:50:13.685Z,7.8
2018-08-09T04:51:15.284Z,7.8
2018-08-09T04:52:16.710Z,7.8
2018-08-09T04:53:18.309Z,7.8
2018-08-09T04:54:19.908Z,7.8
2018-08-09T04:55:21.351Z,7.8
2018-08-09T04:56:22.956Z,7.8
2018-08-09T04:57:24.397Z,7.8
2018-08-09T04:58:26.467Z,7.8
2018-08-09T04:59:28.154Z,7.8
2018-08-09T05:00:29.775Z,7.8
2018-08-09T05:01:31.375Z,7.8
2018-08-09T05:02:32.656Z,7.9
2018-08-09T05:03:34.258Z,7.9
2018-08-09T05:04:35.862Z,7.9
2018-08-09T05:05:37.478Z,7.9
2018-08-09T05:06:39.102Z,7.9
2018-08-09T05:07:40.369Z,7.9
2018-08-09T05:08:41.982Z,7.9
2018-08-09T05:09:43.607Z,7.9
2018-08-09T05:10:45.211Z,7.9
2018-08-09T05:11:46.804Z,7.9
2018-08-09T05:12:48.396Z,7.9
2018-08-09T05:13:49.487Z,7.9
2018-08-09T05:14:50.745Z,7.9
2018-08-09T05:15:52.286Z,7.9
2018-08-09T05:16:53.779Z,7.8
2018-08-09T05:17:55.372Z,7.8
2018-08-09T05:18:56.814Z,7.8
2018-08-09T05:19:58.458Z,7.8
2018-08-09T05:21:00.080Z,7.7
2018-08-09T05:22:01.531Z,7.7
2018-08-09T05:23:03.453Z,7.6
2018-08-09T05:24:05.092Z,7.5
2018-08-09T05:25:06.699Z,7.5
2018-08-09T05:26:08.320Z,7.4
2018-08-09T05:27:09.754Z,7.3
2018-08-09T05:28:11.206Z,7.2
2018-08-09T05:29:12.469Z,7.2
2018-08-09T05:30:13.839Z,7.2
2018-08-09T05:31:15.318Z,7.2
2018-08-09T05:32:16.760Z,7.2
2018-08-09T05:33:18.369Z,7.2
2018-08-09T05:34:20.197Z,7.2
2018-08-09T05:35:21.803Z,7.2
2018-08-09T05:36:23.411Z,7.2
2018-08-09T05:37:24.696Z,7.2
2018-08-09T05:38:26.319Z,7.2
2018-08-09T05:39:27.935Z,7.2
2018-08-09T05:40:29.380Z,7.2
2018-08-09T05:41:30.826Z,7.2
2018-08-09T05:42:32.463Z,7.2
2018-08-09T05:43:34.075Z,7.2
2018-08-09T05:44:35.523Z,7.2
2018-08-09T05:45:37.151Z,7.2
2018-08-09T05:46:38.764Z,7.2
2018-08-09T05:47:40.048Z,7.2
2018-08-09T05:48:41.657Z,7.2
2018-08-09T05:49:43.324Z,7.2
2018-08-09T05:50:44.956Z,7.2
2018-08-09T05:51:46.402Z,7.2
2018-08-09T05:52:48.928Z,7.2
2018-08-09T05:53:50.461Z,7.2
2018-08-09T05:54:52.069Z,7.2
2018-08-09T05:55:53.654Z,7.2
2018-08-09T05:56:55.280Z,7.2
2018-08-09T05:57:56.872Z,7.2
2018-08-09T05:58:58.483Z,7.2
2018-08-09T05:59:59.926Z,7.2
2018-08-09T06:01:01.555Z,7.2
2018-08-09T06:02:03.177Z,7.2
2018-08-09T06:03:04.474Z,7.2
2018-08-09T06:04:06.074Z,7.2
2018-08-09T06:05:07.675Z,7.2
2018-08-09T06:06:09.139Z,7.2
2018-08-09T06:07:10.593Z,7.2
2018-08-09T06:08:12.202Z,7.2
2018-08-09T06:09:13.809Z,7.2
2018-08-09T06:10:15.456Z,7.2
2018-08-09T06:11:17.110Z,7.3
2018-08-09T06:12:18.719Z,7.2
2018-08-09T06:13:20.543Z,7.3
2018-08-09T06:14:22.162Z,7.3
2018-08-09T06:15:23.751Z,7.3
2018-08-09T06:16:25.199Z,7.3
2018-08-09T06:17:26.805Z,7.3
2018-08-09T06:18:28.423Z,7.3
2018-08-09T06:19:30.034Z,7.3
2018-08-09T06:20:31.493Z,7.3
2018-08-09T06:21:33.110Z,7.3
2018-08-09T06:22:34.714Z,7.3
2018-08-09T06:23:36.345Z,7.3
2018-08-09T06:24:37.798Z,7.3
2018-08-09T06:25:39.241Z,7.3
2018-08-09T06:26:41.384Z,7.3
2018-08-09T06:27:42.874Z,7.3
2018-08-09T06:28:44.663Z,7.3
2018-08-09T06:29:46.124Z,7.3
2018-08-09T06:30:47.572Z,7.3
2018-08-09T06:31:48.712Z,7.3
2018-08-09T06:32:50.322Z,7.4
2018-08-09T06:33:51.924Z,7.4
2018-08-09T06:34:53.537Z,7.4
2018-08-09T06:35:55.120Z,7.4
2018-08-09T06:36:56.404Z,7.4
2018-08-09T06:37:58.015Z,7.4
2018-08-09T06:38:59.626Z,7.4
2018-08-09T06:40:01.255Z,7.4
2018-08-09T06:41:02.943Z,7.4
2018-08-09T06:42:04.551Z,7.4
2018-08-09T06:43:06.142Z,7.4
2018-08-09T06:44:07.578Z,7.4
2018-08-09T06:45:08.853Z,7.4
2018-08-09T06:46:10.457Z,7.4
2018-08-09T06:47:12.054Z,7.4
2018-08-09T06:48:13.673Z,7.4
2018-08-09T06:49:15.110Z,7.4
2018-08-09T06:50:16.707Z,7.5
2018-08-09T06:51:18.142Z,7.5
2018-08-09T06:52:19.753Z,7.5
2018-08-09T06:53:21.195Z,7.5
2018-08-09T06:54:22.848Z,7.5
2018-08-09T06:55:24.472Z,7.5
2018-08-09T06:56:26.715Z,7.5
2018-08-09T06:57:28.329Z,7.6
2018-08-09T06:58:29.959Z,7.6
2018-08-09T06:59:31.563Z,7.6
2018-08-09T07:00:33.004Z,7.6
2018-08-09T07:01:34.319Z,7.7
2018-08-09T07:02:35.933Z,7.7
2018-08-09T07:03:37.553Z,7.7
2018-08-09T07:04:38.846Z,7.8
2018-08-09T07:05:40.455Z,7.8
2018-08-09T07:06:41.737Z,7.8
2018-08-09T07:07:43.346Z,7.8
2018-08-09T07:08:44.972Z,7.8
2018-08-09T07:09:46.577Z,7.8
2018-08-09T07:10:48.182Z,7.8
2018-08-09T07:11:49.790Z,7.8
2018-08-09T07:12:51.969Z,7.8
2018-08-09T07:13:53.641Z,7.8
2018-08-09T07:14:55.279Z,7.8
2018-08-09T07:15:56.717Z,7.8
2018-08-09T07:16:58.150Z,7.8
2018-08-09T07:17:59.761Z,7.8
2018-08-09T07:19:01.367Z,7.8
2018-08-09T07:20:02.980Z,7.8
2018-08-09T07:21:04.596Z,7.8
2018-08-09T07:22:06.038Z,7.8
2018-08-09T07:23:07.484Z,7.8
2018-08-09T07:24:09.144Z,7.7
2018-08-09T07:25:10.774Z,7.7
2018-08-09T07:26:12.382Z,7.7
2018-08-09T07:27:13.817Z,7.6
2018-08-09T07:28:15.501Z,7.6
2018-08-09T07:29:17.151Z,7.5
2018-08-09T07:30:18.767Z,7.5
2018-08-09T07:31:20.373Z,7.4
2018-08-09T07:32:21.638Z,7.3
2018-08-09T07:33:23.076Z,7.3
2018-08-09T07:34:24.680Z,7.2
2018-08-09T07:35:26.273Z,7.2
2018-08-09T07:36:28.077Z,7.2
2018-08-09T07:37:29.690Z,7.2
2018-08-09T07:38:31.302Z,7.2
2018-08-09T07:39:33.355Z,7.2
2018-08-09T07:40:34.992Z,7.2
2018-08-09T07:41:36.600Z,7.2
2018-08-09T07:42:38.227Z,7.2
2018-08-09T07:43:39.845Z,7.2
2018-08-09T07:44:41.457Z,7.2
2018-08-09T07:45:43.066Z,7.2
2018-08-09T07:46:44.678Z,7.2
2018-08-09T07:47:46.300Z,7.2
2018-08-09T07:48:48.476Z,7.2
2018-08-09T07:49:50.139Z,7.2
2018-08-09T07:50:51.605Z,7.2
2018-08-09T07:51:52.868Z,7.2
2018-08-09T07:52:54.308Z,7.2
2018-08-09T07:53:55.750Z,7.2
2018-08-09T07:54:57.030Z,7.2
2018-08-09T07:55:58.490Z,7.2
2018-08-09T07:57:00.438Z,7.2
2018-08-09T07:58:01.872Z,7.2
2018-08-09T07:59:03.370Z,7.2
2018-08-09T08:00:04.971Z,7.2
2018-08-09T08:01:06.448Z,7.2
2018-08-09T08:02:08.062Z,7.2
2018-08-09T08:03:09.670Z,7.2
2018-08-09T08:04:11.279Z,7.3
2018-08-09T08:05:12.821Z,7.2
2018-08-09T08:06:14.703Z,7.2
2018-08-09T08:07:16.350Z,7.3
2018-08-09T08:08:18.267Z,7.3
2018-08-09T08:09:19.913Z,7.3
2018-08-09T08:10:21.022Z,7.3
2018-08-09T08:11:22.469Z,7.3
2018-08-09T08:12:23.947Z,7.3
2018-08-09T08:13:25.379Z,7.3
2018-08-09T08:14:26.826Z,7.3
2018-08-09T08:15:28.460Z,7.3
2018-08-09T08:16:29.751Z,7.3
2018-08-09T08:17:31.183Z,7.3
2018-08-09T08:18:32.808Z,7.4
2018-08-09T08:19:34.409Z,7.4
2018-08-09T08:20:36.023Z,7.4
2018-08-09T08:21:37.734Z,7.4
2018-08-09T08:22:39.343Z,7.4
2018-08-09T08:23:40.960Z,7.4
2018-08-09T08:24:42.583Z,7.5
2018-08-09T08:25:44.033Z,7.5
2018-08-09T08:26:45.969Z,7.5
2018-08-09T08:27:47.596Z,7.5
2018-08-09T08:28:49.024Z,7.6
2018-08-09T08:29:50.626Z,7.6
2018-08-09T08:30:52.079Z,7.6
2018-08-09T08:31:53.521Z,7.6
2018-08-09T08:32:55.132Z,7.7
2018-08-09T08:33:56.746Z,7.7
2018-08-09T08:34:58.359Z,7.7
2018-08-09T08:35:59.465Z,7.7
2018-08-09T08:37:01.061Z,7.8
2018-08-09T08:38:02.509Z,7.8
2018-08-09T08:39:04.107Z,7.8
2018-08-09T08:40:05.541Z,7.8
2018-08-09T08:41:07.168Z,7.8
2018-08-09T08:42:08.776Z,7.8
2018-08-09T08:43:10.365Z,7.8
2018-08-09T08:44:11.984Z,7.8
2018-08-09T08:45:13.288Z,7.8
2018-08-09T08:46:14.904Z,7.8
2018-08-09T08:47:16.420Z,7.8
2018-08-09T08:48:18.049Z,7.8
2018-08-09T08:49:19.669Z,7.8
2018-08-09T08:50:21.295Z,7.8
2018-08-09T08:51:22.928Z,7.8
2018-08-09T08:52:24.385Z,7.8
2018-08-09T08:53:26.012Z,7.8
2018-08-09T08:54:27.281Z,7.8
2018-08-09T08:55:28.563Z,7.8
2018-08-09T08:56:30.009Z,7.8
2018-08-09T08:57:31.297Z,7.8
2018-08-09T08:58:33.119Z,7.8
2018-08-09T08:59:34.767Z,7.8
2018-08-09T09:00:36.371Z,7.8
2018-08-09T09:01:37.984Z,7.8
2018-08-09T09:02:39.477Z,7.8
2018-08-09T09:03:41.115Z,7.8
2018-08-09T09:04:42.396Z,7.8
2018-08-09T09:05:44.021Z,7.8
2018-08-09T09:06:45.653Z,7.8
2018-08-09T09:07:47.274Z,7.8
2018-08-09T09:08:48.578Z,7.8
2018-08-09T09:09:50.183Z,7.8
2018-08-09T09:10:51.626Z,7.8
2018-08-09T09:11:53.063Z,7.8
2018-08-09T09:12:54.675Z,7.8
2018-08-09T09:13:56.104Z,7.8
2018-08-09T09:14:57.707Z,7.8
2018-08-09T09:15:59.175Z,7.8
2018-08-09T09:17:00.790Z,7.7
2018-08-09T09:18:02.256Z,7.7
2018-08-09T09:19:03.854Z,7.6
2018-08-09T09:20:05.321Z,7.5
2018-08-09T09:21:06.992Z,7.4
2018-08-09T09:22:08.593Z,7.3
2018-08-09T09:23:10.193Z,7.2
2018-08-09T09:24:11.800Z,7.2
2018-08-09T09:25:13.243Z,7.2
2018-08-09T09:26:14.851Z,7.2
2018-08-09T09:27:16.487Z,7.2
2018-08-09T09:28:18.101Z,7.2
2018-08-09T09:29:19.537Z,7.2
2018-08-09T09:30:21.171Z,7.2
2018-08-09T09:31:22.805Z,7.2
2018-08-09T09:32:24.415Z,7.2
2018-08-09T09:33:25.861Z,7.2
2018-08-09T09:34:27.130Z,7.2
2018-08-09T09:35:28.650Z,7.2
2018-08-09T09:36:30.277Z,7.2
2018-08-09T09:37:31.706Z,7.2
2018-08-09T09:38:33.309Z,7.2
2018-08-09T09:39:34.748Z,7.2
2018-08-09T09:40:35.862Z,7.2
2018-08-09T09:41:37.475Z,7.2
2018-08-09T09:42:39.069Z,7.2
2018-08-09T09:43:55.384Z,7.2
2018-08-09T09:44:56.833Z,7.2
2018-08-09T09:45:58.273Z,7.2
2018-08-09T09:46:59.904Z,7.2
2018-08-09T09:48:01.359Z,7.2
2018-08-09T09:49:02.797Z,7.2
2018-08-09T09:50:04.426Z,7.2
2018-08-09T09:51:06.033Z,7.3
2018-08-09T09:52:07.642Z,7.3
2018-08-09T09:53:09.268Z,7.3
2018-08-09T09:54:10.739Z,7.3
2018-08-09T09:55:12.346Z,7.3
2018-08-09T09:56:13.803Z,7.3
2018-08-09T09:57:15.401Z,7.3
2018-08-09T09:58:16.656Z,7.3
2018-08-09T09:59:18.270Z,7.3
2018-08-09T10:00:19.556Z,7.3
2018-08-09T10:01:21.001Z,7.3
2018-08-09T10:02:22.637Z,7.4
2018-08-09T10:03:23.923Z,7.4
2018-08-09T10:04:25.199Z,7.4
2018-08-09T10:05:26.666Z,7.4
2018-08-09T10:06:28.276Z,7.4
2018-08-09T10:07:29.581Z,7.5
2018-08-09T10:08:31.202Z,7.5
2018-08-09T10:09:32.660Z,7.5
2018-08-09T10:10:34.426Z,7.6
2018-08-09T10:11:35.702Z,7.6
2018-08-09T10:12:37.341Z,7.6
2018-08-09T10:13:38.820Z,7.7
2018-08-09T10:14:40.481Z,7.7
2018-08-09T10:15:42.091Z,7.7
2018-08-09T10:16:43.703Z,7.7
2018-08-09T10:17:45.153Z,7.7
2018-08-09T10:18:46.767Z,7.8
2018-08-09T10:19:48.494Z,7.8
2018-08-09T10:20:50.109Z,7.8
2018-08-09T10:21:51.718Z,7.8
2018-08-09T10:22:53.342Z,7.8
2018-08-09T10:23:54.787Z,7.8
2018-08-09T10:24:56.240Z,7.8
2018-08-09T10:25:57.712Z,7.8
2018-08-09T10:26:59.308Z,7.8
2018-08-09T10:28:00.902Z,7.8
2018-08-09T10:29:02.491Z,7.8
2018-08-09T10:30:03.949Z,7.8
2018-08-09T10:31:05.402Z,7.8
2018-08-09T10:32:07.010Z,7.8
2018-08-09T10:33:08.630Z,7.8
2018-08-09T10:34:10.229Z,7.8
2018-08-09T10:35:11.837Z,7.8
2018-08-09T10:36:13.124Z,7.8
2018-08-09T10:37:14.726Z,7.8
2018-08-09T10:38:16.327Z,7.8
2018-08-09T10:39:17.432Z,7.8
2018-08-09T10:40:18.954Z,7.8
2018-08-09T10:41:20.579Z,7.8
2018-08-09T10:42:22.192Z,7.8
2018-08-09T10:43:23.497Z,7.8
2018-08-09T10:44:25.091Z,7.8
2018-08-09T10:45:26.714Z,7.8
2018-08-09T10:46:28.330Z,7.8
2018-08-09T10:47:29.940Z,7.8
2018-08-09T10:48:31.056Z,7.8
2018-08-09T10:49:32.530Z,7.8
2018-08-09T10:50:34.143Z,7.8
2018-08-09T10:51:35.568Z,7.8
2018-08-09T10:52:36.838Z,7.8
2018-08-09T10:53:38.446Z,7.8
2018-08-09T10:54:40.047Z,7.8
2018-08-09T10:55:41.924Z,7.8
2018-08-09T10:56:43.421Z,7.8
2018-08-09T10:57:44.849Z,7.8
2018-08-09T10:58:46.152Z,7.8
2018-08-09T10:59:47.599Z,7.8
2018-08-09T11:00:49.217Z,7.8
2018-08-09T11:01:51.289Z,7.8
2018-08-09T11:02:52.897Z,7.8
2018-08-09T11:03:54.495Z,7.8
2018-08-09T11:04:56.106Z,7.9
2018-08-09T11:05:57.716Z,7.9
2018-08-09T11:06:59.359Z,7.9
2018-08-09T11:08:00.969Z,7.8
2018-08-09T11:09:02.606Z,7.8
2018-08-09T11:10:04.045Z,7.8
2018-08-09T11:11:05.487Z,7.8
2018-08-09T11:12:07.083Z,7.8
2018-08-09T11:13:08.515Z,7.8
2018-08-09T11:14:10.149Z,7.7
2018-08-09T11:15:11.866Z,7.7
2018-08-09T11:16:13.140Z,7.6
2018-08-09T11:17:14.757Z,7.5
2018-08-09T11:18:16.366Z,7.4
2018-08-09T11:19:17.988Z,7.3
2018-08-09T11:20:19.432Z,7.2
2018-08-09T11:21:20.724Z,7.2
2018-08-09T11:22:22.190Z,7.2
2018-08-09T11:23:23.790Z,7.2
2018-08-09T11:24:25.421Z,7.2
2018-08-09T11:25:26.872Z,7.2
2018-08-09T11:26:28.459Z,7.2
2018-08-09T11:27:30.078Z,7.2
2018-08-09T11:28:31.701Z,7.2
2018-08-09T11:29:33.064Z,7.2
2018-08-09T11:30:34.718Z,7.2
2018-08-09T11:31:36.160Z,7.2
2018-08-09T11:32:37.757Z,7.2
2018-08-09T11:33:39.363Z,7.2
2018-08-09T11:34:40.981Z,7.2
2018-08-09T11:35:42.426Z,7.2
2018-08-09T11:36:44.036Z,7.2
2018-08-09T11:37:45.309Z,7.2
2018-08-09T11:38:46.902Z,7.2
2018-08-09T11:39:48.803Z,7.2
2018-08-09T11:40:50.477Z,7.2
2018-08-09T11:41:52.104Z,7.2
2018-08-09T11:42:53.551Z,7.2
2018-08-09T11:43:54.980Z,7.3
2018-08-09T11:44:56.260Z,7.3
2018-08-09T11:45:57.713Z,7.3
2018-08-09T11:46:58.981Z,7.3
2018-08-09T11:48:00.257Z,7.3
2018-08-09T11:49:02.015Z,7.3
2018-08-09T11:50:03.478Z,7.3
2018-08-09T11:51:05.063Z,7.3
2018-08-09T11:52:06.492Z,7.3
2018-08-09T11:53:07.987Z,7.3
2018-08-09T11:54:09.617Z,7.3
2018-08-09T11:55:11.232Z,7.3
2018-08-09T11:56:13.659Z,7.3
2018-08-09T11:57:15.298Z,7.3
2018-08-09T11:58:16.654Z,7.4
2018-08-09T11:59:18.261Z,7.4
2018-08-09T12:00:19.849Z,7.4
2018-08-09T12:01:21.245Z,7.4
2018-08-09T12:02:22.872Z,7.4
2018-08-09T12:03:24.866Z,7.4
2018-08-09T12:04:26.723Z,7.4
2018-08-09T12:05:28.190Z,7.5
2018-08-09T12:06:29.792Z,7.5
2018-08-09T12:07:31.436Z,7.5
2018-08-09T12:08:33.045Z,7.5
2018-08-09T12:09:35.073Z,7.6
2018-08-09T12:10:36.732Z,7.6
2018-08-09T12:11:38.341Z,7.6
2018-08-09T12:12:39.814Z,7.7
2018-08-09T12:13:41.868Z,7.7
2018-08-09T12:14:43.474Z,7.7
2018-08-09T12:15:45.097Z,7.8
2018-08-09T12:16:46.702Z,7.8
2018-08-09T12:17:48.314Z,7.8
2018-08-09T12:18:49.766Z,7.8
2018-08-09T12:19:51.385Z,7.8
2018-08-09T12:20:53.360Z,7.8
2018-08-09T12:21:54.893Z,7.8
2018-08-09T12:22:56.501Z,7.8
2018-08-09T12:23:57.945Z,7.8
2018-08-09T12:24:59.572Z,7.8
2018-08-09T12:26:01.020Z,7.8
2018-08-09T12:27:03.160Z,7.8
2018-08-09T12:28:04.790Z,7.8
2018-08-09T12:29:06.250Z,7.8
2018-08-09T12:30:07.877Z,7.8
2018-08-09T12:31:09.297Z,7.8
2018-08-09T12:32:10.761Z,7.8
2018-08-09T12:33:12.845Z,7.8
2018-08-09T12:34:14.460Z,7.8
2018-08-09T12:35:16.068Z,7.8
2018-08-09T12:36:17.724Z,7.8
2018-08-09T12:37:19.351Z,7.8
2018-08-09T12:38:20.968Z,7.8
2018-08-09T12:39:22.578Z,7.8
2018-08-09T12:40:24.205Z,7.8
2018-08-09T12:41:25.798Z,7.8
2018-08-09T12:42:27.413Z,7.8
2018-08-09T12:43:28.857Z,7.8
2018-08-09T12:44:30.477Z,7.8
2018-08-09T12:45:32.137Z,7.8
2018-08-09T12:46:33.756Z,7.8
2018-08-09T12:47:35.360Z,7.8
2018-08-09T12:48:36.817Z,7.8
2018-08-09T12:49:38.417Z,7.8
2018-08-09T12:50:39.981Z,7.8
2018-08-09T12:51:41.250Z,7.8
2018-08-09T12:52:42.846Z,7.8
2018-08-09T12:53:44.986Z,7.8
2018-08-09T12:54:46.586Z,7.8
2018-08-09T12:55:48.035Z,7.8
2018-08-09T12:56:49.310Z,7.8
2018-08-09T12:57:50.926Z,7.8
2018-08-09T12:58:52.404Z,7.8
2018-08-09T12:59:54.402Z,7.8
2018-08-09T13:00:56.121Z,7.8
2018-08-09T13:01:57.565Z,7.8
2018-08-09T13:02:59.181Z,7.8
2018-08-09T13:04:00.787Z,7.8
2018-08-09T13:05:02.402Z,7.8
2018-08-09T13:06:04.022Z,7.8
2018-08-09T13:07:05.635Z,7.8
2018-08-09T13:08:07.089Z,7.8
2018-08-09T13:09:08.708Z,7.8
2018-08-09T13:10:10.316Z,7.8
2018-08-09T13:11:12.273Z,7.8
2018-08-09T13:12:13.885Z,7.8
2018-08-09T13:13:15.328Z,7.8
2018-08-09T13:14:16.972Z,7.8
2018-08-09T13:15:18.447Z,7.7
2018-08-09T13:16:20.057Z,7.7
2018-08-09T13:17:21.655Z,7.6
2018-08-09T13:18:23.269Z,7.6
2018-08-09T13:19:24.868Z,7.5
2018-08-09T13:20:26.468Z,7.4
2018-08-09T13:21:27.931Z,7.3
2018-08-09T13:22:29.543Z,7.2
2018-08-09T13:23:31.327Z,7.2
2018-08-09T13:24:32.986Z,7.2
2018-08-09T13:25:34.594Z,7.2
2018-08-09T13:26:36.222Z,7.2
2018-08-09T13:27:37.525Z,7.2
2018-08-09T13:28:39.004Z,7.2
2018-08-09T13:29:40.284Z,7.2
2018-08-09T13:30:41.883Z,7.2
2018-08-09T13:31:43.520Z,7.2
2018-08-09T13:32:45.119Z,7.2
2018-08-09T13:33:46.931Z,7.2
2018-08-09T13:34:48.543Z,7.2
2018-08-09T13:35:50.152Z,7.2
2018-08-09T13:36:51.772Z,7.2
2018-08-09T13:37:53.209Z,7.2
2018-08-09T13:38:54.832Z,7.2
2018-08-09T13:39:56.451Z,7.2
2018-08-09T13:40:58.061Z,7.2
2018-08-09T13:41:59.663Z,7.2
2018-08-09T13:43:01.274Z,7.2
2018-08-09T13:44:02.912Z,7.2
2018-08-09T13:45:04.557Z,7.2
2018-08-09T13:46:06.167Z,7.2
2018-08-09T13:47:07.798Z,7.2
2018-08-09T13:48:09.398Z,7.2
2018-08-09T13:49:10.821Z,7.2
2018-08-09T13:50:12.416Z,7.2
2018-08-09T13:51:13.525Z,7.2
2018-08-09T13:52:15.146Z,7.2
2018-08-09T13:53:16.652Z,7.2
2018-08-09T13:54:18.269Z,7.2
2018-08-09T13:55:19.702Z,7.2
2018-08-09T13:56:21.301Z,7.2
2018-08-09T13:57:22.733Z,7.2
2018-08-09T13:58:24.605Z,7.3
2018-08-09T13:59:26.084Z,7.3
2018-08-09T14:00:27.534Z,7.3
2018-08-09T14:01:29.152Z,7.3
2018-08-09T14:02:30.417Z,7.3
2018-08-09T14:03:31.895Z,7.3
2018-08-09T14:04:33.347Z,7.3
2018-08-09T14:05:34.809Z,7.3
2018-08-09T14:06:36.424Z,7.4
2018-08-09T14:07:38.042Z,7.4
2018-08-09T14:08:39.646Z,7.4